createdAt,value
2019-01-05T00:02:05.108Z,83.34
2019-01-05T00:04:53.800Z,85.29
2019-01-05T00:07:43.218Z,87.14
2019-01-05T00:10:34.629Z,86.95
2019-01-05T00:13:23.090Z,87.17
2019-01-05T00:25:18.897Z,83.88
2019-01-05T00:44:35.564Z,80.27
2019-01-05T00:47:54.831Z,81.02
2019-01-05T00:51:03.558Z,82.78
2019-01-05T02:23:59.131Z,89.08
2019-01-05T02:27:25.442Z,88.70
2019-01-05T02:30:51.666Z,89.33
2019-01-05T02:37:39.359Z,88.87
2019-01-05T02:41:06.310Z,87.81
2019-01-05T02:44:32.518Z,87.47
2019-01-05T02:48:00.616Z,85.70
2019-01-05T02:51:26.920Z,85.37
2019-01-05T02:54:55.814Z,84.45
2019-01-05T02:58:24.963Z,83.67
2019-01-05T03:01:51.632Z,82.77
2019-01-05T03:12:26.755Z,83.83
2019-01-05T03:30:26.260Z,80.63
2019-01-05T04:21:57.671Z,84.18
2019-01-05T04:25:23.870Z,85.56
2019-01-05T04:28:50.839Z,86.42
2019-01-05T04:32:04.578Z,85.19
2019-01-05T04:35:30.905Z,86.39
2019-01-05T04:38:57.148Z,84.25
2019-01-05T04:42:12.909Z,81.48
2019-01-05T04:45:41.852Z,81.13
2019-01-05T04:49:08.100Z,73.97
2019-01-05T04:52:34.371Z,66.82
2019-01-05T05:21:05.579Z,67.17
2019-01-05T05:24:34.610Z,76.84
2019-01-05T05:28:02.696Z,81.67
2019-01-05T05:31:28.905Z,85.42
2019-01-05T05:34:55.213Z,88.77
2019-01-05T05:45:40.142Z,92.26
2019-01-05T05:52:29.710Z,74.38
2019-01-05T05:55:52.941Z,73.68
2019-01-05T06:09:43.304Z,66.88
2019-01-05T06:13:09.533Z,66.60
2019-01-05T06:16:35.881Z,68.69
2019-01-05T06:30:43.258Z,93.34
2019-01-05T06:34:09.467Z,94.54
2019-01-05T06:37:36.460Z,90.24
2019-01-05T06:41:02.742Z,100.00
2019-01-05T06:44:29.070Z,100.00
2019-01-05T06:47:58.419Z,100.00
2019-01-05T06:51:24.421Z,96.41
2019-01-05T06:58:22.310Z,92.16
2019-01-05T07:05:36.601Z,91.42
2019-01-05T07:09:05.650Z,89.46
2019-01-05T07:19:31.383Z,85.93
2019-01-05T07:22:58.642Z,91.55
2019-01-05T07:26:22.851Z,92.13
2019-01-05T07:29:50.852Z,98.81
2019-01-05T07:37:02.515Z,87.25
2019-01-05T07:40:28.738Z,82.13
2019-01-05T07:43:45.302Z,76.79
2019-01-05T07:47:12.529Z,78.83
2019-01-05T07:50:38.785Z,79.32
2019-01-05T07:54:05.686Z,85.87
2019-01-05T07:57:31.944Z,81.45
2019-01-05T08:01:01.370Z,77.03
2019-01-05T08:04:28.604Z,75.32
2019-01-05T08:07:55.114Z,72.95
2019-01-05T08:11:22.347Z,71.99
2019-01-05T08:14:48.687Z,75.25
2019-01-05T08:18:25.670Z,73.85
2019-01-05T08:21:39.297Z,73.04
2019-01-05T08:25:06.308Z,73.90
2019-01-05T08:28:32.641Z,75.00
2019-01-05T08:31:59.148Z,76.92
2019-01-05T08:35:27.123Z,74.28
2019-01-05T08:38:54.172Z,73.36
2019-01-05T08:42:20.845Z,74.66
2019-01-05T08:53:34.707Z,74.39
2019-01-05T09:01:09.477Z,74.61
2019-01-05T09:08:52.838Z,69.12
2019-01-05T09:12:18.429Z,70.49
2019-01-05T09:16:08.066Z,74.06
2019-01-05T09:19:52.166Z,73.68
2019-01-05T09:23:33.563Z,77.04
2019-01-05T09:27:00.511Z,78.73
2019-01-05T09:30:27.649Z,76.35
2019-01-05T09:33:54.169Z,74.60
2019-01-05T09:37:23.418Z,76.98
2019-01-05T09:40:51.524Z,78.06
2019-01-05T09:44:17.814Z,76.82
2019-01-05T09:47:44.154Z,77.57
2019-01-05T09:54:49.290Z,78.94
2019-01-05T09:58:18.561Z,76.38
2019-01-05T10:01:44.912Z,81.14
2019-01-05T10:05:11.188Z,76.84
2019-01-05T10:08:37.789Z,75.51
2019-01-05T10:11:48.355Z,72.68
2019-01-05T10:29:35.391Z,70.23
2019-01-05T11:18:36.034Z,68.70
2019-01-05T11:30:03.835Z,68.53
2019-01-05T11:37:04.146Z,68.60
2019-01-05T11:40:33.332Z,65.35
2019-01-05T12:31:07.238Z,65.62
2019-01-05T12:34:35.476Z,65.38
2019-01-05T12:38:04.509Z,63.91
2019-01-05T12:44:52.374Z,62.14
2019-01-05T13:17:06.175Z,60.48
2019-01-05T13:20:32.463Z,60.78
2019-01-05T13:23:58.748Z,61.53
2019-01-05T13:27:27.886Z,59.80
2019-01-05T13:30:57.046Z,59.20
2019-01-05T13:34:24.557Z,57.77
2019-01-05T13:37:52.671Z,57.83
2019-01-05T13:48:28.631Z,57.96
2019-01-05T13:51:54.887Z,55.30
2019-01-05T13:54:44.305Z,55.32
2019-01-05T13:57:27.761Z,54.89
2019-01-05T14:00:15.835Z,54.68
2019-01-05T14:03:04.297Z,55.86
2019-01-05T14:05:52.717Z,55.16
2019-01-05T14:08:41.221Z,53.94
2019-01-05T14:17:31.279Z,53.13
2019-01-05T14:20:19.685Z,52.68
2019-01-05T14:23:08.161Z,54.83
2019-01-05T14:29:04.064Z,54.77
2019-01-05T14:31:52.484Z,55.06
2019-01-05T14:34:41.695Z,53.96
2019-01-05T14:37:30.171Z,53.73
2019-01-05T14:40:18.698Z,54.87
2019-01-05T14:43:08.147Z,55.21
2019-01-05T14:45:56.867Z,55.19
2019-01-05T14:59:01.674Z,55.00
2019-01-05T15:01:50.104Z,54.44
2019-01-05T15:04:38.583Z,54.77
2019-01-05T15:07:27.009Z,56.40
2019-01-05T15:10:15.459Z,53.75
2019-01-05T15:13:03.917Z,52.29
2019-01-05T15:15:47.799Z,51.76
2019-01-05T15:18:37.189Z,54.83
2019-01-05T15:21:25.665Z,58.42
2019-01-05T15:24:14.138Z,62.28
2019-01-05T15:33:52.993Z,61.00
2019-01-05T15:36:41.412Z,59.52
2019-01-05T15:39:30.936Z,61.46
2019-01-05T15:42:39.816Z,60.23
2019-01-05T15:45:28.351Z,62.89
2019-01-05T15:48:40.888Z,59.99
2019-01-05T15:51:29.436Z,62.16
2019-01-05T15:54:18.112Z,61.96
2019-01-05T15:57:07.405Z,60.49
2019-01-05T15:59:55.897Z,77.41
2019-01-05T16:02:45.981Z,63.61
2019-01-05T16:06:14.123Z,61.13
2019-01-05T16:09:02.848Z,61.53
2019-01-05T16:11:52.156Z,61.33
2019-01-05T16:14:40.611Z,60.86
2019-01-05T16:17:29.922Z,61.04
2019-01-05T16:30:45.991Z,61.01
2019-01-05T16:33:34.388Z,60.99
2019-01-05T16:39:18.109Z,60.99
2019-01-05T16:42:08.607Z,65.03
2019-01-05T16:44:57.061Z,64.82
2019-01-05T16:47:45.714Z,67.85
2019-01-05T17:00:18.870Z,64.33
2019-01-05T17:06:15.343Z,62.85
2019-01-05T17:12:21.733Z,69.80
2019-01-05T17:15:10.196Z,71.52
2019-01-05T17:17:58.644Z,64.14
2019-01-05T17:20:48.067Z,65.05
2019-01-05T17:23:37.343Z,63.40
2019-01-05T17:32:24.929Z,64.00
2019-01-05T17:35:13.657Z,64.48
2019-01-05T17:41:09.462Z,68.14
2019-01-05T17:43:57.884Z,68.98
2019-01-05T17:46:46.335Z,69.65
2019-01-05T17:49:34.786Z,69.84
2019-01-05T17:52:23.302Z,70.47
2019-01-05T17:55:11.729Z,71.96
2019-01-05T18:00:54.232Z,70.80
2019-01-05T18:06:35.991Z,69.20
2019-01-05T18:09:44.822Z,69.45
2019-01-05T18:12:33.295Z,70.46
2019-01-05T18:15:21.840Z,68.94
2019-01-05T18:21:14.369Z,71.25
2019-01-05T18:24:02.825Z,72.97
2019-01-05T18:26:51.359Z,71.96
2019-01-05T18:29:39.758Z,72.67
2019-01-05T18:32:28.224Z,71.54
2019-01-05T18:35:16.671Z,69.94
2019-01-05T18:38:05.123Z,69.82
2019-01-05T18:44:20.052Z,71.20
2019-01-05T18:50:17.040Z,70.35
2019-01-05T18:53:05.470Z,69.42
2019-01-05T18:55:53.907Z,68.94
2019-01-05T18:58:43.328Z,67.18
2019-01-05T19:01:31.857Z,67.43
2019-01-05T19:04:20.317Z,67.80
2019-01-05T19:07:08.929Z,66.75
2019-01-05T19:10:07.891Z,63.62
2019-01-05T19:12:56.323Z,64.59
2019-01-05T19:15:45.740Z,65.36
2019-01-05T19:21:27.247Z,65.15
2019-01-05T19:24:15.740Z,64.14
2019-01-05T19:27:04.094Z,63.50
2019-01-05T19:29:52.838Z,63.68
2019-01-05T20:13:12.363Z,72.87
2019-01-05T20:16:55.846Z,72.62
2019-01-05T20:33:04.613Z,71.92
2019-01-05T20:35:54.535Z,69.72
2019-01-05T20:38:41.983Z,66.17
2019-01-05T20:41:45.429Z,65.02
2019-01-05T20:44:32.161Z,65.26
2019-01-05T20:47:32.613Z,64.07
2019-01-05T20:50:19.544Z,64.72
2019-01-05T20:53:07.988Z,63.94
2019-01-05T20:56:08.722Z,65.39
2019-01-05T20:58:56.438Z,66.79
2019-01-05T21:01:51.051Z,68.89
2019-01-05T21:04:38.189Z,69.26
2019-01-05T21:07:36.913Z,70.59
2019-01-05T21:10:35.331Z,70.82
2019-01-05T21:13:22.362Z,70.15
2019-01-05T21:16:29.062Z,68.90
2019-01-05T21:19:16.226Z,68.35
2019-01-05T21:22:04.671Z,68.38
2019-01-05T21:24:51.960Z,66.33
2019-01-05T21:27:55.652Z,64.54
2019-01-05T21:30:43.542Z,63.06
2019-01-05T21:33:30.475Z,65.01
2019-01-05T21:36:24.848Z,65.41
2019-01-05T21:39:16.090Z,65.09
2019-01-05T21:42:07.671Z,65.42
2019-01-05T21:45:11.043Z,66.01
2019-01-05T21:47:57.971Z,66.63
2019-01-05T21:50:44.860Z,68.14
2019-01-05T21:53:33.418Z,71.32
2019-01-05T21:56:25.102Z,72.36
2019-01-05T21:59:21.814Z,70.19
2019-01-05T22:02:10.283Z,73.48
2019-01-05T22:05:01.673Z,72.91
2019-01-05T22:07:50.153Z,74.04
2019-01-05T22:10:53.822Z,76.14
2019-01-05T22:13:41.540Z,77.66
2019-01-05T22:16:28.532Z,79.08
2019-01-05T22:19:29.246Z,79.84
2019-01-05T22:22:26.615Z,77.74
2019-01-05T22:25:15.065Z,80.92
2019-01-05T22:30:51.060Z,81.30
2019-01-05T22:33:39.485Z,81.21
2019-01-05T22:36:27.931Z,81.31
2019-01-05T22:42:43.998Z,83.49
2019-01-05T22:45:33.753Z,81.03
2019-01-05T22:48:22.459Z,80.55
2019-01-05T22:51:11.877Z,81.68
2019-01-05T22:57:12.777Z,76.14
2019-01-05T23:00:02.940Z,75.58
2019-01-05T23:02:51.496Z,77.01
2019-01-05T23:05:41.167Z,76.75
2019-01-05T23:08:29.657Z,76.73
2019-01-05T23:11:18.200Z,76.88
2019-01-05T23:14:06.669Z,79.57
2019-01-05T23:16:55.191Z,78.44
2019-01-05T23:19:43.570Z,82.46
2019-01-05T23:22:33.234Z,83.27
2019-01-05T23:25:22.742Z,82.32
2019-01-05T23:28:11.454Z,87.52
2019-01-05T23:30:59.838Z,88.38
2019-01-05T23:33:48.300Z,87.21
2019-01-05T23:36:36.855Z,88.97
2019-01-05T23:39:25.611Z,91.82
2019-01-05T23:42:15.015Z,91.13
2019-01-05T23:45:03.463Z,91.33
2019-01-05T23:47:51.927Z,91.16
2019-01-05T23:50:40.769Z,85.34
2019-01-05T23:53:21.699Z,80.97
2019-01-05T23:56:10.149Z,79.95
2019-01-05T23:58:58.570Z,79.90
